Time;durP1;ratioP1;P1;durP2;ratioP2;P2;SDS_P1;SDS_P2;PMS_P1;PMS_P2;Temp;Humidity;BMP_temperature;BMP_pressure;BME280_temperature;BME280_humidity;BME280_pressure;Samples;Min_cycle;Max_cycle;Signal;HPM_P1;HPM_P2
2022/01/29 00:01:32;;;;;;;15.70;7.95;;;;;;;2.09;60.50;100762.66;5046588;28;20169;-72
2022/01/29 00:03:59;;;;;;;11.95;4.55;;;;;;;2.12;60.29;100766.06;5047343;28;20419;-74
2022/01/29 00:06:26;;;;;;;16.38;6.82;;;;;;;2.03;60.67;100773.25;5049565;28;20535;-71
2022/01/29 00:08:56;;;;;;;10.85;5.75;;;;;;;2.09;60.53;100775.69;5049937;28;20417;-75
2022/01/29 00:11:28;;;;;;;7.70;4.93;;;;;;;2.06;60.61;100782.75;5049420;28;20120;-74
2022/01/29 00:13:55;;;;;;;10.98;5.28;;;;;;;2.04;60.88;100782.78;5050595;28;20517;-72
2022/01/29 00:16:22;;;;;;;13.88;6.07;;;;;;;2.03;60.74;100780.22;5051024;28;20049;-74
2022/01/29 00:18:49;;;;;;;12.68;6.82;;;;;;;2.03;60.85;100793.25;5049571;28;20049;-76
2022/01/29 00:21:16;;;;;;;12.85;6.25;;;;;;;2.03;60.89;100788.88;5051416;28;20049;-73
2022/01/29 00:23:45;;;;;;;10.50;4.05;;;;;;;2.04;60.89;100794.97;5059538;28;20094;-73
2022/01/29 00:26:14;;;;;;;12.65;4.72;;;;;;;2.04;60.97;100789.75;5046825;28;20056;-73
2022/01/29 00:28:41;;;;;;;15.38;5.78;;;;;;;2.00;61.03;100796.81;5065599;28;20644;-73
2022/01/29 00:31:10;;;;;;;8.27;4.88;;;;;;;2.01;60.99;100793.28;5064253;28;20073;-73
2022/01/29 00:33:38;;;;;;;9.18;3.88;;;;;;;2.05;61.03;100789.72;5063324;28;20049;-73
2022/01/29 00:36:06;;;;;;;12.18;4.70;;;;;;;2.03;61.11;100785.44;5014664;28;20057;-73
2022/01/29 00:38:33;;;;;;;11.43;5.45;;;;;;;2.04;60.67;100793.19;5056195;28;20461;-76
2022/01/29 00:41:00;;;;;;;13.02;5.35;;;;;;;2.03;61.00;100801.06;5034419;28;20060;-73
2022/01/29 00:43:29;;;;;;;12.32;5.22;;;;;;;1.99;61.06;100782.06;5033788;28;20053;-76
2022/01/29 00:45:56;;;;;;;11.52;4.05;;;;;;;2.05;60.79;100791.44;5035073;28;20101;-73
2022/01/29 00:48:23;;;;;;;12.05;4.95;;;;;;;2.02;60.93;100795.00;5034810;28;20056;-74
2022/01/29 00:50:50;;;;;;;11.13;5.88;;;;;;;1.94;61.12;100786.53;5034907;28;20045;-73
2022/01/29 00:53:17;;;;;;;8.55;4.47;;;;;;;1.93;61.14;100784.84;5033941;28;20061;-71
2022/01/29 00:55:45;;;;;;;10.43;5.60;;;;;;;1.86;61.42;100786.75;5030188;28;20846;-73
2022/01/29 00:58:12;;;;;;;11.88;7.55;;;;;;;1.88;61.58;100786.72;5030511;28;20045;-70
2022/01/29 01:00:40;;;;;;;15.15;5.38;;;;;;;1.88;61.32;100790.16;5034514;28;20072;-74
2022/01/29 01:03:07;;;;;;;11.00;6.25;;;;;;;1.86;61.62;100785.91;5043213;28;20110;-70
2022/01/29 01:05:35;;;;;;;8.65;4.97;;;;;;;1.83;61.62;100786.00;5023172;28;20080;-70
2022/01/29 01:08:03;;;;;;;16.98;6.72;;;;;;;1.84;61.65;100780.75;5042259;28;20073;-73
2022/01/29 01:10:30;;;;;;;13.20;6.47;;;;;;;1.86;61.67;100775.50;5043167;28;20220;-72
2022/01/29 01:12:57;;;;;;;17.77;6.70;;;;;;;1.86;61.62;100773.72;5043590;28;20125;-71
2022/01/29 01:15:24;;;;;;;12.55;5.47;;;;;;;1.83;61.69;100771.19;5044503;28;20087;-74
2022/01/29 01:17:53;;;;;;;11.27;5.75;;;;;;;1.84;61.63;100767.72;5043203;28;20096;-73
2022/01/29 01:20:20;;;;;;;13.35;6.03;;;;;;;1.82;61.68;100763.44;5045158;28;20073;-73
2022/01/29 01:22:47;;;;;;;12.50;5.85;;;;;;;1.81;61.90;100769.56;5043590;28;20049;-75
2022/01/29 01:25:15;;;;;;;11.52;5.60;;;;;;;1.83;61.75;100765.16;5045167;28;20081;-72
2022/01/29 01:27:43;;;;;;;17.88;6.30;;;;;;;1.80;61.87;100758.28;5041016;28;20041;-74
2022/01/29 01:30:11;;;;;;;9.85;5.25;;;;;;;1.81;61.82;100756.53;5041055;28;20488;-70
2022/01/29 01:32:38;;;;;;;12.80;4.63;;;;;;;1.86;61.56;100758.09;5041643;28;20042;-73
2022/01/29 01:35:14;;;;;;;13.82;5.43;;;;;;;1.83;61.83;100752.13;5038247;28;20050;-70
2022/01/29 01:37:46;;;;;;;15.07;5.32;;;;;;;1.82;61.69;100753.00;5043388;28;20049;-73
2022/01/29 01:40:15;;;;;;;10.00;4.55;;;;;;;1.81;61.60;100748.72;5063924;28;20106;-72
2022/01/29 01:42:42;;;;;;;11.38;5.22;;;;;;;1.80;61.70;100753.09;5066177;28;20225;-70
2022/01/29 01:45:09;;;;;;;9.55;5.30;;;;;;;1.79;61.63;100750.53;5066327;28;20183;-73
2022/01/29 01:47:37;;;;;;;15.02;6.03;;;;;;;1.76;61.79;100758.41;5067165;28;20109;-71
2022/01/29 01:50:07;;;;;;;9.43;5.85;;;;;;;1.70;61.73;100747.25;5064342;28;20045;-73
2022/01/29 01:52:34;;;;;;;13.73;6.57;;;;;;;1.75;61.40;100747.16;5041745;28;20058;-73
2022/01/29 01:55:01;;;;;;;12.60;4.95;;;;;;;1.76;61.46;100758.41;5020427;28;20060;-72
2022/01/29 01:57:28;;;;;;;7.95;4.90;;;;;;;1.70;61.40;100741.22;5037064;28;20057;-73
2022/01/29 01:59:58;;;;;;;15.23;5.63;;;;;;;1.75;61.28;100751.47;5035866;28;20107;-70
2022/01/29 02:02:26;;;;;;;8.30;4.95;;;;;;;1.71;61.17;100737.69;5037861;28;20042;-74
2022/01/29 02:04:53;;;;;;;14.60;6.03;;;;;;;1.68;61.30;100736.03;5035943;28;20504;-74
2022/01/29 02:07:21;;;;;;;12.20;6.00;;;;;;;1.70;61.48;100742.06;5036125;28;20073;-69
2022/01/29 02:09:48;;;;;;;15.52;5.95;;;;;;;1.74;61.09;100727.19;5029883;28;20111;-71
2022/01/29 02:12:20;;;;;;;12.75;4.75;;;;;;;1.67;61.24;100730.88;5054667;28;20512;-71
2022/01/29 02:14:47;;;;;;;12.65;5.85;;;;;;;1.69;61.11;100740.38;5035793;28;20459;-74
2022/01/29 02:17:20;;;;;;;10.00;5.07;;;;;;;1.70;61.10;100738.59;5054853;28;20072;-74
2022/01/29 02:19:51;;;;;;;9.48;4.38;;;;;;;1.72;60.93;100740.25;5052721;28;20049;-72
2022/01/29 02:22:23;;;;;;;12.48;6.10;;;;;;;1.68;61.08;100733.44;5053051;28;20079;-74
2022/01/29 02:24:51;;;;;;;11.82;5.78;;;;;;;1.66;61.34;100737.00;5053910;28;20088;-75
2022/01/29 02:27:18;;;;;;;10.63;5.40;;;;;;;1.66;61.25;100735.22;5054654;28;20075;-74
2022/01/29 02:29:48;;;;;;;12.70;5.05;;;;;;;1.68;61.04;100737.78;5052683;28;20059;-71
2022/01/29 02:32:15;;;;;;;13.20;4.97;;;;;;;1.76;60.93;100729.75;5052453;28;20053;-73
2022/01/29 02:34:45;;;;;;;15.00;5.80;;;;;;;1.68;61.17;100728.22;5051609;28;20040;-75
2022/01/29 02:37:13;;;;;;;18.27;5.70;;;;;;;1.69;60.97;100736.88;5054993;28;20079;-77
2022/01/29 02:39:42;;;;;;;8.85;4.63;;;;;;;1.69;61.05;100729.06;5054475;28;20104;-75
2022/01/29 02:42:09;;;;;;;16.73;6.95;;;;;;;1.66;61.09;100739.59;5055261;28;20045;-74
2022/01/29 02:44:36;;;;;;;7.63;4.32;;;;;;;1.70;60.88;100731.63;5053388;28;20101;-75
2022/01/29 02:47:25;;;;;;;10.43;4.85;;;;;;;1.70;60.92;100728.19;5051065;28;20047;-72
2022/01/29 02:49:52;;;;;;;11.23;5.30;;;;;;;1.64;60.99;100723.13;5050691;28;20049;-72
2022/01/29 02:52:20;;;;;;;12.30;3.78;;;;;;;1.64;60.97;100737.03;5050467;28;20548;-74
2022/01/29 02:54:49;;;;;;;15.73;5.40;;;;;;;1.62;61.15;100727.53;5048812;28;20175;-76
2022/01/29 02:57:18;;;;;;;12.40;4.82;;;;;;;1.60;60.97;100724.97;5049923;28;20049;-75
2022/01/29 02:59:45;;;;;;;11.55;4.40;;;;;;;1.60;61.11;100735.38;5050014;28;20053;-75
2022/01/29 03:02:13;;;;;;;16.05;5.05;;;;;;;1.59;61.02;100718.06;5048896;28;20048;-72
2022/01/29 03:04:40;;;;;;;7.97;4.20;;;;;;;1.62;60.90;100736.22;5047997;28;20132;-75
2022/01/29 03:07:07;;;;;;;9.25;4.63;;;;;;;1.58;61.08;100731.13;5048687;28;20565;-72
2022/01/29 03:09:34;;;;;;;9.20;4.13;;;;;;;1.61;60.92;100733.66;5048159;28;20136;-76
2022/01/29 03:12:05;;;;;;;9.93;4.03;;;;;;;1.61;60.93;100733.66;5048193;28;20139;-75
2022/01/29 03:14:33;;;;;;;13.20;5.10;;;;;;;1.57;61.07;100727.69;5031115;28;20052;-77
2022/01/29 03:17:00;;;;;;;13.88;4.68;;;;;;;1.58;61.04;100726.75;5047901;28;20056;-73
2022/01/29 03:19:28;;;;;;;11.82;5.45;;;;;;;1.57;60.92;100719.00;5030548;28;20746;-72
2022/01/29 03:21:55;;;;;;;10.48;4.20;;;;;;;1.55;61.05;100715.59;5048162;28;20131;-74
2022/01/29 03:24:22;;;;;;;14.40;5.47;;;;;;;1.53;60.98;100718.22;5047220;28;20045;-74
2022/01/29 03:26:49;;;;;;;8.27;3.95;;;;;;;1.53;60.76;100719.09;5047320;28;20071;-72
2022/01/29 03:29:17;;;;;;;9.05;3.83;;;;;;;1.50;61.08;100713.97;5047517;28;20060;-72
2022/01/29 03:31:44;;;;;;;13.02;4.03;;;;;;;1.50;61.02;100715.72;5047526;28;20133;-73
2022/01/29 03:34:12;;;;;;;11.70;4.32;;;;;;;1.46;61.10;100712.34;5045692;28;20045;-73
2022/01/29 03:36:39;;;;;;;12.55;4.47;;;;;;;1.46;60.95;100704.53;5047944;28;20085;-72
2022/01/29 03:39:07;;;;;;;11.63;3.75;;;;;;;1.47;61.09;100702.78;5049023;28;20284;-74
2022/01/29 03:41:36;;;;;;;15.73;5.25;;;;;;;1.46;60.91;100701.06;5047850;28;20053;-73
2022/01/29 03:44:06;;;;;;;22.33;5.70;;;;;;;1.50;60.77;100702.72;5046491;28;20045;-73
2022/01/29 03:46:34;;;;;;;16.23;6.85;;;;;;;1.51;61.01;100709.59;5045572;28;20084;-72
2022/01/29 03:49:01;;;;;;;10.48;5.03;;;;;;;1.52;60.74;100711.31;5045835;28;20055;-77
2022/01/29 03:51:29;;;;;;;13.07;5.53;;;;;;;1.52;60.92;100708.72;5046259;28;20048;-75
2022/01/29 03:53:55;;;;;;;15.02;6.53;;;;;;;1.49;60.65;100716.59;5045451;28;20105;-72
2022/01/29 03:56:23;;;;;;;11.75;5.57;;;;;;;1.46;61.06;100714.09;5045521;28;20067;-72
2022/01/29 03:58:51;;;;;;;20.40;6.50;;;;;;;1.44;60.88;100719.34;5046454;28;20106;-73
2022/01/29 04:01:18;;;;;;;12.35;6.97;;;;;;;1.40;61.16;100716.88;5046110;28;20437;-76
2022/01/29 04:03:46;;;;;;;16.63;6.00;;;;;;;1.38;61.19;100709.09;5044031;28;20059;-74
2022/01/29 04:06:13;;;;;;;11.40;5.20;;;;;;;1.37;61.12;100716.94;5045801;28;20064;-75
2022/01/29 04:08:42;;;;;;;11.07;4.05;;;;;;;1.37;60.99;100715.22;5045882;28;20128;-72
2022/01/29 04:11:12;;;;;;;11.27;5.20;;;;;;;1.36;61.18;100718.69;5045911;28;20056;-78
2022/01/29 04:13:40;;;;;;;9.85;5.32;;;;;;;1.43;61.23;100722.00;5045219;28;20053;-74
2022/01/29 04:16:08;;;;;;;10.55;4.93;;;;;;;1.42;61.23;100720.28;5045948;28;20080;-71
2022/01/29 04:18:35;;;;;;;15.02;5.60;;;;;;;1.37;61.32;100709.13;5046027;28;20048;-75
2022/01/29 04:21:05;;;;;;;13.25;4.72;;;;;;;1.36;61.32;100710.88;5010890;28;20132;-76
2022/01/29 04:23:32;;;;;;;11.73;4.22;;;;;;;1.35;61.16;100701.34;5046257;28;20543;-74
2022/01/29 04:26:01;;;;;;;14.25;4.40;;;;;;;1.36;61.48;100704.84;5045503;28;20049;-76
2022/01/29 04:28:31;;;;;;;13.32;3.65;;;;;;;1.34;61.46;100704.88;5045675;28;20110;-73
2022/01/29 04:31:01;;;;;;;11.43;4.15;;;;;;;1.34;61.53;100707.47;5045984;28;20130;-73
2022/01/29 04:33:32;;;;;;;8.50;4.13;;;;;;;1.37;61.35;100701.31;5046128;28;20162;-75
2022/01/29 04:36:01;;;;;;;11.05;3.85;;;;;;;1.33;61.18;100701.44;5046020;28;20102;-74
2022/01/29 04:38:31;;;;;;;12.38;5.50;;;;;;;1.37;61.45;100696.13;5030406;28;20604;-74
2022/01/29 04:41:04;;;;;;;10.43;3.78;;;;;;;1.37;61.34;100696.13;5048998;28;20069;-76
2022/01/29 04:43:32;;;;;;;11.98;4.28;;;;;;;1.36;61.48;100695.28;5049786;28;20119;-78
2022/01/29 04:46:00;;;;;;;10.23;3.97;;;;;;;1.36;61.33;100697.88;5048650;28;20048;-75
2022/01/29 04:48:27;;;;;;;8.48;4.13;;;;;;;1.36;61.19;100705.69;5049129;28;20059;-76
2022/01/29 04:50:55;;;;;;;9.13;4.90;;;;;;;1.34;61.48;100697.91;5015853;28;20053;-76
2022/01/29 04:53:23;;;;;;;9.93;3.67;;;;;;;1.33;61.42;100696.22;5048229;28;20662;-73
2022/01/29 04:55:51;;;;;;;11.77;3.90;;;;;;;1.31;61.48;100690.22;4996695;28;20102;-72
2022/01/29 04:58:19;;;;;;;12.85;5.00;;;;;;;1.31;61.27;100682.41;5049217;28;20052;-73
2022/01/29 05:00:46;;;;;;;11.68;4.32;;;;;;;1.30;61.27;100680.69;5048037;28;20052;-75
2022/01/29 05:03:16;;;;;;;8.25;4.82;;;;;;;1.32;61.28;100665.03;5048684;28;20041;-75
2022/01/29 05:05:44;;;;;;;10.23;4.47;;;;;;;1.30;61.46;100669.44;5046355;28;20164;-73
2022/01/29 05:08:13;;;;;;;11.35;5.25;;;;;;;1.27;61.35;100664.31;5047733;28;20056;-73
2022/01/29 05:10:40;;;;;;;13.95;5.30;;;;;;;1.28;61.34;100666.88;5048574;28;20052;-72
2022/01/29 05:13:11;;;;;;;9.32;5.28;;;;;;;1.28;61.41;100658.22;5048636;28;20041;-71
2022/01/29 05:15:42;;;;;;;11.38;4.05;;;;;;;1.27;61.48;100649.53;5048110;28;20045;-74
2022/01/29 05:29:10;;;;;;;11.68;4.45;;;;;;;1.22;61.16;100661.81;5048197;28;19932;-74
2022/01/29 05:31:39;;;;;;;17.27;6.43;;;;;;;1.15;61.33;100660.28;5047957;28;20473;-74
2022/01/29 05:34:07;;;;;;;22.13;10.43;;;;;;;1.13;61.41;100656.84;5047400;28;20056;-73
2022/01/29 05:36:34;;;;;;;22.65;12.65;;;;;;;1.13;61.47;100662.06;5047631;28;20059;-76
2022/01/29 05:39:01;;;;;;;28.90;10.25;;;;;;;1.10;61.34;100659.56;5048068;28;20081;-75
2022/01/29 05:41:29;;;;;;;17.88;8.20;;;;;;;1.09;61.51;100648.28;5047990;28;20136;-74
2022/01/29 05:43:56;;;;;;;17.02;7.80;;;;;;;1.08;61.59;100645.72;5047499;28;20049;-74
2022/01/29 05:46:24;;;;;;;10.45;5.13;;;;;;;1.09;61.80;100644.84;5047625;28;20135;-72
2022/01/29 05:48:52;;;;;;;9.60;4.28;;;;;;;1.10;61.53;100641.34;5048138;28;20049;-75
2022/01/29 05:51:19;;;;;;;17.55;6.60;;;;;;;1.08;61.64;100636.19;5048371;28;20053;-71
2022/01/29 05:53:46;;;;;;;17.65;5.68;;;;;;;1.10;61.65;100625.75;5048333;28;20049;-73
2022/01/29 05:56:13;;;;;;;12.45;4.80;;;;;;;1.11;61.64;100622.22;5047881;28;20135;-76
2022/01/29 05:58:40;;;;;;;12.27;5.47;;;;;;;1.13;61.71;100626.50;5032524;28;20041;-77
2022/01/29 06:01:07;;;;;;;11.80;5.50;;;;;;;1.14;61.78;100628.22;5028778;28;20269;-76
2022/01/29 06:03:36;;;;;;;12.52;5.97;;;;;;;1.19;61.68;100629.81;5027096;28;20050;-75
2022/01/29 06:06:03;;;;;;;15.60;5.03;;;;;;;1.21;61.81;100628.06;5028003;28;20049;-72
2022/01/29 06:08:31;;;;;;;14.07;5.18;;;;;;;1.25;61.83;100629.66;5029078;28;20047;-74
2022/01/29 06:10:58;;;;;;;13.68;6.68;;;;;;;1.27;61.73;100628.72;5028045;28;20049;-74
2022/01/29 06:13:25;;;;;;;19.23;7.25;;;;;;;1.28;61.69;100625.22;5028399;28;20053;-75
2022/01/29 06:15:53;;;;;;;26.50;10.80;;;;;;;1.31;61.66;100626.88;5027444;28;20079;-74
2022/01/29 06:18:23;;;;;;;39.50;14.73;;;;;;;1.33;61.85;100618.16;5010514;28;20081;-74
2022/01/29 06:20:52;;;;;;;33.13;14.70;;;;;;;1.34;61.65;100614.63;5028695;28;20050;-74
2022/01/29 06:23:28;;;;;;;37.92;14.38;;;;;;;1.34;61.62;100613.78;5028483;28;20046;-73
2022/01/29 06:25:56;;;;;;;32.13;13.18;;;;;;;1.36;61.67;100618.94;5027567;28;20076;-75
2022/01/29 06:28:24;;;;;;;27.90;14.77;;;;;;;1.37;61.91;100629.31;5027914;28;20049;-76
2022/01/29 06:30:51;;;;;;;13.88;8.68;;;;;;;1.40;61.66;100618.81;5028485;28;20072;-72
2022/01/29 06:33:19;;;;;;;21.05;8.50;;;;;;;1.44;61.68;100627.38;5027766;28;20124;-72
2022/01/29 06:35:47;;;;;;;19.98;8.32;;;;;;;1.45;61.78;100618.69;5027387;28;20037;-76
2022/01/29 06:38:17;;;;;;;22.45;7.57;;;;;;;1.52;61.78;100617.63;5027510;28;20063;-74
2022/01/29 06:40:45;;;;;;;20.88;8.48;;;;;;;1.56;61.49;100607.97;5026996;28;20072;-74
2022/01/29 06:43:13;;;;;;;49.55;17.80;;;;;;;1.61;61.50;100613.88;5027827;28;20132;-78
2022/01/29 06:45:42;;;;;;;54.45;17.88;;;;;;;1.61;61.58;100621.69;5027324;28;20049;-71
2022/01/29 06:48:12;;;;;;;40.72;13.88;;;;;;;1.65;61.70;100616.34;5026527;28;20041;-72
2022/01/29 06:50:41;;;;;;;25.10;10.15;;;;;;;1.69;61.64;100619.69;5009422;28;20057;-79
2022/01/29 06:53:08;;;;;;;30.02;13.77;;;;;;;1.72;61.49;100612.66;5027384;28;20168;-72
2022/01/29 06:55:37;;;;;;;34.40;13.35;;;;;;;1.76;61.75;100610.81;5026475;28;20136;-74
2022/01/29 06:58:04;;;;;;;27.83;15.13;;;;;;;1.75;61.55;100603.03;5026637;28;20413;-73
2022/01/29 07:00:31;;;;;;;28.23;12.32;;;;;;;1.77;61.51;100596.91;5025176;28;20053;-73
2022/01/29 07:02:58;;;;;;;39.10;17.85;;;;;;;1.82;61.71;100594.13;5026227;28;20144;-71
2022/01/29 07:05:25;;;;;;;28.75;14.82;;;;;;;1.87;61.43;100587.91;5022954;28;20069;-71
2022/01/29 07:07:52;;;;;;;23.88;12.40;;;;;;;1.96;61.63;100589.34;5026464;28;20076;-73
2022/01/29 07:10:19;;;;;;;24.65;12.07;;;;;;;2.01;61.67;100579.66;5024775;28;20081;-74
2022/01/29 07:12:48;;;;;;;26.00;13.20;;;;;;;2.08;61.59;100583.75;5023967;28;20103;-71
2022/01/29 07:15:15;;;;;;;26.45;10.95;;;;;;;2.15;61.28;100573.16;5025588;28;20076;-72
2022/01/29 07:17:42;;;;;;;27.38;14.48;;;;;;;2.19;61.56;100573.00;5024741;28;20136;-69
2022/01/29 07:20:10;;;;;;;25.65;10.90;;;;;;;2.24;61.42;100567.63;5023519;28;20643;-76
2022/01/29 07:22:39;;;;;;;31.20;13.82;;;;;;;2.32;61.68;100562.16;5028432;28;20123;-72
2022/01/29 07:25:07;;;;;;;19.02;9.10;;;;;;;2.39;61.55;100558.44;5044386;28;20049;-74
2022/01/29 07:27:34;;;;;;;26.67;12.93;;;;;;;2.43;61.44;100560.91;5045406;28;20568;-72
2022/01/29 07:30:02;;;;;;;28.33;14.55;;;;;;;2.48;61.51;100561.63;5045182;28;20049;-70
2022/01/29 07:32:29;;;;;;;23.98;13.55;;;;;;;2.52;61.75;100551.94;5047036;28;20102;-70
2022/01/29 07:34:56;;;;;;;24.83;12.57;;;;;;;2.58;61.58;100561.28;5045478;28;20045;-72
2022/01/29 07:37:24;;;;;;;19.55;9.93;;;;;;;2.65;61.53;100550.59;5044365;28;20045;-72
2022/01/29 07:39:51;;;;;;;17.58;9.98;;;;;;;2.78;61.44;100545.78;5045638;28;20179;-75
2022/01/29 07:42:18;;;;;;;17.95;9.45;;;;;;;2.99;61.16;100536.34;5047033;28;20041;-69
2022/01/29 07:44:45;;;;;;;22.30;9.73;;;;;;;3.09;60.85;100523.78;5046963;28;20137;-76
2022/01/29 07:47:14;;;;;;;24.25;10.35;;;;;;;3.12;60.95;100533.28;5043997;28;20541;-73
2022/01/29 07:49:41;;;;;;;20.42;9.98;;;;;;;3.18;61.02;100528.66;5047066;28;20107;-73
2022/01/29 07:52:08;;;;;;;22.63;10.25;;;;;;;3.23;60.80;100515.47;5047114;28;20128;-74
2022/01/29 07:54:35;;;;;;;27.50;13.40;;;;;;;3.24;60.59;100510.19;5045408;28;20105;-73
2022/01/29 07:57:08;;;;;;;25.23;9.55;;;;;;;3.29;60.84;100502.16;5048309;28;20148;-81
2022/01/29 07:59:35;;;;;;;23.30;9.88;;;;;;;3.28;60.78;100507.44;5047200;28;20205;-77
2022/01/29 08:02:03;;;;;;;24.88;12.57;;;;;;;3.28;60.97;100503.09;5044436;28;20501;-73
2022/01/29 08:04:33;;;;;;;25.67;13.07;;;;;;;3.31;60.86;100492.50;5043003;28;20053;-74
2022/01/29 08:07:00;;;;;;;26.38;9.73;;;;;;;3.32;60.70;100498.59;5044349;28;20132;-76
2022/01/29 08:09:27;;;;;;;25.73;12.93;;;;;;;3.37;60.70;100494.91;5044426;28;20127;-74
2022/01/29 08:11:54;;;;;;;33.33;14.60;;;;;;;3.41;60.74;100493.84;5046399;28;20068;-76
2022/01/29 08:14:22;;;;;;;27.48;11.88;;;;;;;3.49;60.39;100490.09;5050867;28;20052;-74
2022/01/29 08:16:49;;;;;;;27.85;13.98;;;;;;;3.52;60.42;100488.22;5051352;28;20091;-80
2022/01/29 08:19:18;;;;;;;31.58;17.63;;;;;;;3.56;60.62;100484.56;5051056;28;20045;-77
2022/01/29 08:21:47;;;;;;;31.52;13.32;;;;;;;3.63;60.40;100488.63;5050088;28;20694;-76
2022/01/29 08:24:15;;;;;;;33.00;14.18;;;;;;;3.67;60.34;100483.28;5029550;28;20485;-74
2022/01/29 08:26:42;;;;;;;24.40;12.15;;;;;;;3.69;60.27;100471.00;5047049;28;20057;-74
2022/01/29 08:29:09;;;;;;;24.52;12.80;;;;;;;3.76;60.34;100468.13;5032378;28;20604;-76
2022/01/29 08:31:37;;;;;;;30.98;14.95;;;;;;;3.79;60.07;100452.28;5009777;28;20686;-76
2022/01/29 08:34:05;;;;;;;29.50;12.75;;;;;;;3.90;60.06;100454.47;5007271;28;20054;-74
2022/01/29 08:36:32;;;;;;;29.83;13.57;;;;;;;3.95;60.01;100462.97;5005965;28;20057;-73
2022/01/29 08:39:00;;;;;;;31.67;14.45;;;;;;;4.08;59.92;100455.44;5034385;28;20190;-72
2022/01/29 08:41:27;;;;;;;26.35;10.88;;;;;;;4.28;59.66;100449.38;5039472;28;20059;-76
2022/01/29 08:43:54;;;;;;;19.98;11.27;;;;;;;4.52;59.37;100444.84;5027878;28;20112;-76
2022/01/29 08:46:21;;;;;;;19.77;9.80;;;;;;;4.76;58.83;100457.75;5027522;28;20638;-75
2022/01/29 08:48:48;;;;;;;19.20;9.48;;;;;;;4.91;58.52;100443.94;5030082;28;20128;-72
2022/01/29 08:51:16;;;;;;;23.23;11.52;;;;;;;5.10;58.11;100441.34;5024426;28;20693;-72
2022/01/29 08:53:43;;;;;;;33.28;12.70;;;;;;;5.27;57.72;100439.69;5025957;28;20077;-72
2022/01/29 08:56:11;;;;;;;33.78;17.05;;;;;;;5.34;57.23;100441.94;5024577;28;20056;-71
2022/01/29 08:58:39;;;;;;;34.60;15.52;;;;;;;5.39;57.36;100426.00;5035036;28;20063;-76
2022/01/29 09:01:07;;;;;;;37.95;14.60;;;;;;;5.46;57.15;100430.03;5023698;28;20053;-76
2022/01/29 09:03:35;;;;;;;32.53;14.75;;;;;;;5.50;56.97;100423.72;5024312;28;20144;-75
2022/01/29 09:06:02;;;;;;;30.75;12.98;;;;;;;5.51;56.98;100422.81;5022907;28;20501;-71
2022/01/29 09:08:29;;;;;;;31.23;15.38;;;;;;;5.54;56.79;100412.16;5024352;28;20501;-76
2022/01/29 09:10:57;;;;;;;27.35;10.60;;;;;;;5.62;56.93;100408.31;5025513;28;20067;-75
2022/01/29 09:13:41;;;;;;;21.65;10.55;;;;;;;5.75;56.96;100412.03;5048015;28;20048;-71
2022/01/29 09:16:08;;;;;;;27.23;12.65;;;;;;;5.85;56.65;100420.28;5026405;28;20056;-75
2022/01/29 09:18:35;;;;;;;38.60;15.75;;;;;;;5.94;56.36;100406.69;5045254;28;20047;-73
2022/01/29 09:21:03;;;;;;;32.17;14.23;;;;;;;5.92;56.38;100398.94;5048029;28;20055;-72
2022/01/29 09:23:30;;;;;;;30.65;13.10;;;;;;;5.92;56.48;100406.81;5043728;28;20132;-73
2022/01/29 09:25:57;;;;;;;26.15;12.38;;;;;;;5.93;56.31;100395.38;5043446;28;20416;-75
2022/01/29 09:28:25;;;;;;;28.30;14.40;;;;;;;6.00;56.25;100398.56;5040504;28;20136;-76
2022/01/29 09:30:53;;;;;;;24.48;12.80;;;;;;;6.07;56.21;100388.63;5043201;28;20084;-74
2022/01/29 09:33:20;;;;;;;22.27;9.65;;;;;;;6.22;55.86;100392.22;5045629;28;20077;-74
2022/01/29 09:35:48;;;;;;;24.48;11.63;;;;;;;6.36;55.52;100387.09;5042672;28;20037;-74
2022/01/29 09:38:16;;;;;;;22.73;10.07;;;;;;;6.48;55.48;100378.56;5039259;28;20060;-74
2022/01/29 09:40:44;;;;;;;23.05;10.88;;;;;;;6.52;55.40;100368.75;5025142;28;20527;-74
2022/01/29 09:43:12;;;;;;;23.70;11.77;;;;;;;6.47;55.51;100365.53;5026102;28;20140;-73
2022/01/29 09:45:39;;;;;;;23.85;10.73;;;;;;;6.46;55.45;100358.59;5024789;28;20054;-71
2022/01/29 09:48:08;;;;;;;27.73;12.52;;;;;;;6.44;55.60;100357.81;5028502;28;20045;-77
2022/01/29 09:50:38;;;;;;;30.50;11.40;;;;;;;6.45;55.64;100357.75;5010684;28;20061;-73
2022/01/29 09:53:06;;;;;;;22.15;10.70;;;;;;;6.50;55.39;100345.22;5028693;28;20060;-75
2022/01/29 09:55:34;;;;;;;31.27;14.07;;;;;;;6.43;55.35;100346.50;5008650;28;20152;-74
2022/01/29 09:58:02;;;;;;;48.13;16.63;;;;;;;6.46;55.29;100338.47;5023889;28;20084;-75
2022/01/29 10:00:29;;;;;;;25.67;10.00;;;;;;;6.50;55.33;100333.91;5023252;28;20456;-76
2022/01/29 10:03:20;;;;;;;24.10;11.80;;;;;;;6.51;55.33;100335.56;5008444;28;20750;-75
2022/01/29 10:05:50;;;;;;;28.42;12.88;;;;;;;6.58;55.14;100326.44;5020637;28;20049;-75
2022/01/29 10:08:21;;;;;;;28.48;12.50;;;;;;;6.64;55.04;100320.84;5023294;28;20121;-75
2022/01/29 10:10:49;;;;;;;29.50;15.15;;;;;;;6.69;55.02;100321.44;5024353;28;20060;-75
2022/01/29 10:13:27;;;;;;;41.17;18.70;;;;;;;6.80;54.91;100314.75;5039690;28;20052;-73
2022/01/29 10:16:05;;;;;;;53.97;26.75;;;;;;;6.75;54.67;100308.91;5043752;28;20155;-76
2022/01/29 10:18:35;;;;;;;44.95;23.55;;;;;;;6.69;54.99;100313.56;5044370;28;20051;-73
2022/01/29 10:21:15;;;;;;;50.72;28.10;;;;;;;6.69;55.01;100297.81;5025858;28;20059;-74
2022/01/29 10:23:43;;;;;;;58.05;27.60;;;;;;;6.78;54.84;100288.56;5044355;28;20059;-73
2022/01/29 10:26:11;;;;;;;36.83;17.10;;;;;;;6.87;54.56;100277.56;5047269;28;20084;-76
2022/01/29 10:28:39;;;;;;;34.90;16.63;;;;;;;6.95;54.36;100271.88;5037670;28;20057;-73
2022/01/29 10:31:07;;;;;;;39.50;20.05;;;;;;;6.99;54.13;100272.56;5028510;28;20136;-73
2022/01/29 10:33:38;;;;;;;31.08;13.40;;;;;;;6.96;54.39;100263.06;5026356;28;20590;-73
2022/01/29 10:36:07;;;;;;;36.92;14.15;;;;;;;6.98;54.18;100249.84;5027264;28;20614;-73
2022/01/29 10:38:49;;;;;;;25.90;12.63;;;;;;;7.01;54.38;100226.88;5025842;28;20128;-76
2022/01/29 10:41:21;;;;;;;31.88;14.98;;;;;;;7.05;54.19;100215.25;5037912;28;20080;-73
2022/01/29 10:44:17;;;;;;;31.83;16.40;;;;;;;7.22;54.02;100226.53;5042435;28;20521;-72
2022/01/29 10:46:47;;;;;;;34.05;17.95;;;;;;;7.28;53.61;100227.03;5037114;28;20042;-72
2022/01/29 10:49:25;;;;;;;30.58;13.52;;;;;;;7.12;53.70;100220.16;5032815;28;20113;-72
2022/01/29 10:52:02;;;;;;;30.15;14.75;;;;;;;7.05;54.08;100219.66;5031976;28;20187;-73
2022/01/29 10:54:30;;;;;;;30.60;12.90;;;;;;;7.01;54.00;100202.41;5026552;28;20046;-73
2022/01/29 10:57:00;;;;;;;32.15;14.60;;;;;;;6.91;53.98;100194.22;5029979;28;20176;-72
2022/01/29 10:59:28;;;;;;;33.22;15.18;;;;;;;6.89;53.99;100194.28;5041935;28;20060;-74
2022/01/29 11:01:57;;;;;;;29.55;12.40;;;;;;;6.84;54.04;100203.38;5039680;28;20095;-74
2022/01/29 11:04:28;;;;;;;27.08;11.25;;;;;;;6.89;54.14;100194.28;5042831;28;20596;-75
2022/01/29 11:06:57;;;;;;;43.28;16.08;;;;;;;6.95;53.86;100177.38;5043200;28;20052;-69
2022/01/29 11:09:26;;;;;;;25.52;12.15;;;;;;;6.97;53.54;100180.75;5036542;28;20112;-72
2022/01/29 11:11:57;;;;;;;33.50;17.65;;;;;;;6.94;53.79;100173.03;5044303;28;20124;-76
2022/01/29 11:14:25;;;;;;;27.55;12.38;;;;;;;6.95;53.90;100163.38;5012001;28;20090;-74
2022/01/29 11:16:54;;;;;;;39.85;16.45;;;;;;;6.98;53.75;100156.16;5011854;28;20048;-74
2022/01/29 11:19:21;;;;;;;22.90;10.60;;;;;;;7.06;53.61;100160.97;5023381;28;20410;-74
2022/01/29 11:21:52;;;;;;;33.25;13.88;;;;;;;7.00;53.71;100148.19;5030918;28;20103;-73
2022/01/29 11:24:22;;;;;;;23.92;9.57;;;;;;;6.96;53.68;100147.53;5021853;28;20569;-74
2022/01/29 11:26:50;;;;;;;29.83;7.90;;;;;;;6.95;53.74;100140.59;5025295;28;20049;-72
2022/01/29 11:29:32;;;;;;;32.42;14.68;;;;;;;6.91;53.99;100133.81;5030101;28;20049;-75
2022/01/29 11:32:42;;;;;;;24.83;13.57;;;;;;;6.88;54.04;100123.53;5027320;28;20421;-73
2022/01/29 11:35:12;;;;;;;30.60;11.48;;;;;;;6.91;53.86;100112.81;5028731;28;20128;-73
2022/01/29 11:37:51;;;;;;;21.50;10.43;;;;;;;6.85;53.91;100098.28;4994180;28;20502;-73
2022/01/29 11:40:27;;;;;;;36.95;14.80;;;;;;;6.92;54.00;100095.31;4966836;28;20136;-72